sensor_id;sensor_type;location;lat;lon;timestamp;P1;durP1;ratioP1;P2;durP2;ratioP2
66739;SDS011;53653;52.188;8.602;2023-01-26T00:01:13;72.90;;;23.92;;
66739;SDS011;53653;52.188;8.602;2023-01-26T00:03:43;91.47;;;26.67;;
66739;SDS011;53653;52.188;8.602;2023-01-26T00:06:10;105.85;;;31.13;;
66739;SDS011;53653;52.188;8.602;2023-01-26T00:08:38;107.17;;;27.60;;
66739;SDS011;53653;52.188;8.602;2023-01-26T00:11:06;112.07;;;30.15;;
66739;SDS011;53653;52.188;8.602;2023-01-26T00:13:33;106.30;;;26.80;;
66739;SDS011;53653;52.188;8.602;2023-01-26T00:16:00;98.55;;;27.88;;
66739;SDS011;53653;52.188;8.602;2023-01-26T00:18:30;93.85;;;27.13;;
66739;SDS011;53653;52.188;8.602;2023-01-26T00:21:01;107.43;;;28.50;;
66739;SDS011;53653;52.188;8.602;2023-01-26T00:23:30;118.05;;;31.58;;
66739;SDS011;53653;52.188;8.602;2023-01-26T00:25:58;103.90;;;29.08;;
66739;SDS011;53653;52.188;8.602;2023-01-26T00:28:23;111.40;;;29.80;;
66739;SDS011;53653;52.188;8.602;2023-01-26T00:30:50;116.63;;;33.07;;
66739;SDS011;53653;52.188;8.602;2023-01-26T00:33:16;93.53;;;26.73;;
66739;SDS011;53653;52.188;8.602;2023-01-26T00:35:41;95.70;;;27.10;;
66739;SDS011;53653;52.188;8.602;2023-01-26T00:38:11;114.70;;;30.45;;
66739;SDS011;53653;52.188;8.602;2023-01-26T00:40:38;98.60;;;30.08;;
66739;SDS011;53653;52.188;8.602;2023-01-26T00:43:04;100.53;;;27.60;;
66739;SDS011;53653;52.188;8.602;2023-01-26T00:45:30;93.88;;;29.27;;
66739;SDS011;53653;52.188;8.602;2023-01-26T00:47:58;105.80;;;29.52;;
66739;SDS011;53653;52.188;8.602;2023-01-26T00:50:25;107.18;;;30.88;;
66739;SDS011;53653;52.188;8.602;2023-01-26T00:52:55;76.67;;;23.30;;
66739;SDS011;53653;52.188;8.602;2023-01-26T00:55:22;73.88;;;22.45;;
66739;SDS011;53653;52.188;8.602;2023-01-26T00:57:48;109.47;;;31.33;;
66739;SDS011;53653;52.188;8.602;2023-01-26T01:00:14;87.40;;;23.20;;
66739;SDS011;53653;52.188;8.602;2023-01-26T01:02:42;56.85;;;20.42;;
66739;SDS011;53653;52.188;8.602;2023-01-26T01:05:09;104.70;;;28.65;;
66739;SDS011;53653;52.188;8.602;2023-01-26T01:07:35;94.00;;;30.07;;
66739;SDS011;53653;52.188;8.602;2023-01-26T01:10:00;98.97;;;29.35;;
66739;SDS011;53653;52.188;8.602;2023-01-26T01:12:26;103.83;;;28.17;;
66739;SDS011;53653;52.188;8.602;2023-01-26T01:14:53;104.47;;;28.65;;
66739;SDS011;53653;52.188;8.602;2023-01-26T01:17:18;89.87;;;26.50;;
66739;SDS011;53653;52.188;8.602;2023-01-26T01:19:44;112.07;;;30.58;;
66739;SDS011;53653;52.188;8.602;2023-01-26T01:22:11;105.57;;;31.63;;
66739;SDS011;53653;52.188;8.602;2023-01-26T01:24:40;101.45;;;28.65;;
66739;SDS011;53653;52.188;8.602;2023-01-26T01:27:07;105.15;;;30.58;;
66739;SDS011;53653;52.188;8.602;2023-01-26T01:29:33;99.57;;;28.90;;
66739;SDS011;53653;52.188;8.602;2023-01-26T01:32:00;98.13;;;28.83;;
66739;SDS011;53653;52.188;8.602;2023-01-26T01:34:26;102.45;;;29.55;;
66739;SDS011;53653;52.188;8.602;2023-01-26T01:36:51;103.90;;;29.60;;
66739;SDS011;53653;52.188;8.602;2023-01-26T01:39:17;91.65;;;27.63;;
66739;SDS011;53653;52.188;8.602;2023-01-26T01:41:44;99.40;;;28.07;;
66739;SDS011;53653;52.188;8.602;2023-01-26T01:44:19;94.25;;;28.90;;
66739;SDS011;53653;52.188;8.602;2023-01-26T01:49:43;96.47;;;29.10;;
66739;SDS011;53653;52.188;8.602;2023-01-26T01:52:17;100.70;;;29.70;;
66739;SDS011;53653;52.188;8.602;2023-01-26T01:57:21;100.68;;;28.45;;
66739;SDS011;53653;52.188;8.602;2023-01-26T01:59:54;98.28;;;29.55;;
66739;SDS011;53653;52.188;8.602;2023-01-26T02:02:26;106.10;;;27.53;;
66739;SDS011;53653;52.188;8.602;2023-01-26T02:04:54;99.20;;;27.77;;
66739;SDS011;53653;52.188;8.602;2023-01-26T02:07:27;105.70;;;30.52;;
66739;SDS011;53653;52.188;8.602;2023-01-26T02:09:55;96.20;;;28.10;;
66739;SDS011;53653;52.188;8.602;2023-01-26T02:12:42;108.32;;;29.70;;
66739;SDS011;53653;52.188;8.602;2023-01-26T02:15:10;102.77;;;27.80;;
66739;SDS011;53653;52.188;8.602;2023-01-26T02:17:36;96.15;;;27.58;;
66739;SDS011;53653;52.188;8.602;2023-01-26T02:20:25;100.80;;;27.00;;
66739;SDS011;53653;52.188;8.602;2023-01-26T02:23:04;110.65;;;30.70;;
66739;SDS011;53653;52.188;8.602;2023-01-26T02:28:18;115.97;;;31.65;;
66739;SDS011;53653;52.188;8.602;2023-01-26T02:30:46;104.18;;;29.92;;
66739;SDS011;53653;52.188;8.602;2023-01-26T02:36:00;107.60;;;30.67;;
66739;SDS011;53653;52.188;8.602;2023-01-26T02:38:32;111.57;;;30.10;;
66739;SDS011;53653;52.188;8.602;2023-01-26T02:41:08;106.50;;;30.45;;
66739;SDS011;53653;52.188;8.602;2023-01-26T02:44:04;83.38;;;24.30;;
66739;SDS011;53653;52.188;8.602;2023-01-26T02:46:33;104.93;;;28.70;;
66739;SDS011;53653;52.188;8.602;2023-01-26T02:48:59;104.93;;;29.43;;
66739;SDS011;53653;52.188;8.602;2023-01-26T02:51:43;105.95;;;27.67;;
66739;SDS011;53653;52.188;8.602;2023-01-26T02:54:09;108.38;;;31.27;;
66739;SDS011;53653;52.188;8.602;2023-01-26T02:56:56;100.83;;;29.23;;
66739;SDS011;53653;52.188;8.602;2023-01-26T02:59:21;105.43;;;29.05;;
66739;SDS011;53653;52.188;8.602;2023-01-26T03:01:50;106.30;;;31.77;;
66739;SDS011;53653;52.188;8.602;2023-01-26T03:04:17;117.70;;;31.17;;
66739;SDS011;53653;52.188;8.602;2023-01-26T03:06:42;99.57;;;30.93;;
66739;SDS011;53653;52.188;8.602;2023-01-26T03:09:08;108.60;;;29.33;;
66739;SDS011;53653;52.188;8.602;2023-01-26T03:11:33;97.07;;;29.27;;
66739;SDS011;53653;52.188;8.602;2023-01-26T03:14:12;102.28;;;30.85;;
66739;SDS011;53653;52.188;8.602;2023-01-26T03:16:39;105.35;;;30.80;;
66739;SDS011;53653;52.188;8.602;2023-01-26T03:19:08;96.40;;;28.33;;
66739;SDS011;53653;52.188;8.602;2023-01-26T03:21:56;110.30;;;28.10;;
66739;SDS011;53653;52.188;8.602;2023-01-26T03:24:41;104.50;;;28.40;;
66739;SDS011;53653;52.188;8.602;2023-01-26T03:27:25;101.93;;;29.27;;
66739;SDS011;53653;52.188;8.602;2023-01-26T03:29:56;112.10;;;32.17;;
66739;SDS011;53653;52.188;8.602;2023-01-26T03:32:23;110.22;;;30.02;;
66739;SDS011;53653;52.188;8.602;2023-01-26T03:34:51;104.90;;;33.00;;
66739;SDS011;53653;52.188;8.602;2023-01-26T03:37:17;102.18;;;30.67;;
66739;SDS011;53653;52.188;8.602;2023-01-26T03:39:55;102.65;;;30.48;;
66739;SDS011;53653;52.188;8.602;2023-01-26T03:42:40;109.47;;;31.83;;
66739;SDS011;53653;52.188;8.602;2023-01-26T03:45:25;102.30;;;28.98;;
66739;SDS011;53653;52.188;8.602;2023-01-26T03:48:10;99.60;;;29.83;;
66739;SDS011;53653;52.188;8.602;2023-01-26T03:50:57;103.20;;;29.70;;
66739;SDS011;53653;52.188;8.602;2023-01-26T03:53:41;97.32;;;26.75;;
66739;SDS011;53653;52.188;8.602;2023-01-26T03:56:27;98.93;;;27.48;;
66739;SDS011;53653;52.188;8.602;2023-01-26T03:59:03;106.32;;;28.13;;
66739;SDS011;53653;52.188;8.602;2023-01-26T04:01:37;103.93;;;27.30;;
66739;SDS011;53653;52.188;8.602;2023-01-26T04:04:05;90.90;;;26.50;;
66739;SDS011;53653;52.188;8.602;2023-01-26T04:06:52;99.13;;;28.00;;
66739;SDS011;53653;52.188;8.602;2023-01-26T04:09:40;87.90;;;25.98;;
66739;SDS011;53653;52.188;8.602;2023-01-26T04:12:07;95.95;;;29.13;;
66739;SDS011;53653;52.188;8.602;2023-01-26T04:14:39;102.87;;;28.10;;
66739;SDS011;53653;52.188;8.602;2023-01-26T04:17:27;95.25;;;26.90;;
66739;SDS011;53653;52.188;8.602;2023-01-26T04:20:12;96.65;;;26.90;;
66739;SDS011;53653;52.188;8.602;2023-01-26T04:22:56;96.95;;;28.38;;
66739;SDS011;53653;52.188;8.602;2023-01-26T04:25:23;98.63;;;28.40;;
66739;SDS011;53653;52.188;8.602;2023-01-26T04:27:49;101.68;;;27.88;;
66739;SDS011;53653;52.188;8.602;2023-01-26T04:30:15;98.40;;;27.50;;
66739;SDS011;53653;52.188;8.602;2023-01-26T04:32:44;102.83;;;28.03;;
66739;SDS011;53653;52.188;8.602;2023-01-26T04:35:11;99.78;;;26.25;;
66739;SDS011;53653;52.188;8.602;2023-01-26T04:37:37;113.18;;;27.80;;
66739;SDS011;53653;52.188;8.602;2023-01-26T04:40:05;108.30;;;29.23;;
66739;SDS011;53653;52.188;8.602;2023-01-26T04:42:33;106.75;;;26.73;;
66739;SDS011;53653;52.188;8.602;2023-01-26T04:45:00;99.73;;;26.50;;
66739;SDS011;53653;52.188;8.602;2023-01-26T04:47:27;109.13;;;28.17;;
66739;SDS011;53653;52.188;8.602;2023-01-26T04:49:53;99.90;;;27.70;;
66739;SDS011;53653;52.188;8.602;2023-01-26T04:52:22;106.13;;;27.48;;
66739;SDS011;53653;52.188;8.602;2023-01-26T04:54:49;102.35;;;30.30;;
66739;SDS011;53653;52.188;8.602;2023-01-26T04:57:16;105.83;;;27.87;;
66739;SDS011;53653;52.188;8.602;2023-01-26T04:59:47;107.78;;;27.90;;
66739;SDS011;53653;52.188;8.602;2023-01-26T05:02:13;103.32;;;27.50;;
66739;SDS011;53653;52.188;8.602;2023-01-26T05:04:40;110.68;;;28.02;;
66739;SDS011;53653;52.188;8.602;2023-01-26T05:07:07;103.40;;;27.70;;
66739;SDS011;53653;52.188;8.602;2023-01-26T05:09:32;92.22;;;26.40;;
66739;SDS011;53653;52.188;8.602;2023-01-26T05:12:18;98.50;;;27.40;;
66739;SDS011;53653;52.188;8.602;2023-01-26T05:15:18;109.37;;;28.90;;
66739;SDS011;53653;52.188;8.602;2023-01-26T05:18:04;98.60;;;27.65;;
66739;SDS011;53653;52.188;8.602;2023-01-26T05:20:45;107.97;;;29.35;;
66739;SDS011;53653;52.188;8.602;2023-01-26T05:23:15;99.88;;;26.25;;
66739;SDS011;53653;52.188;8.602;2023-01-26T05:26:07;96.32;;;26.08;;
66739;SDS011;53653;52.188;8.602;2023-01-26T05:28:43;94.63;;;24.87;;
66739;SDS011;53653;52.188;8.602;2023-01-26T05:31:09;110.47;;;26.75;;
66739;SDS011;53653;52.188;8.602;2023-01-26T05:33:35;96.27;;;27.47;;
66739;SDS011;53653;52.188;8.602;2023-01-26T05:36:03;96.18;;;25.63;;
66739;SDS011;53653;52.188;8.602;2023-01-26T05:38:30;95.72;;;26.63;;
66739;SDS011;53653;52.188;8.602;2023-01-26T05:40:55;90.23;;;25.93;;
66739;SDS011;53653;52.188;8.602;2023-01-26T05:43:22;101.22;;;28.88;;
66739;SDS011;53653;52.188;8.602;2023-01-26T05:46:07;85.90;;;22.63;;
66739;SDS011;53653;52.188;8.602;2023-01-26T05:48:32;97.90;;;26.83;;
66739;SDS011;53653;52.188;8.602;2023-01-26T05:50:59;92.13;;;25.93;;
66739;SDS011;53653;52.188;8.602;2023-01-26T05:53:25;90.05;;;25.85;;
66739;SDS011;53653;52.188;8.602;2023-01-26T05:55:50;100.60;;;27.33;;
66739;SDS011;53653;52.188;8.602;2023-01-26T05:58:20;94.35;;;26.08;;
66739;SDS011;53653;52.188;8.602;2023-01-26T06:00:47;92.18;;;28.15;;
66739;SDS011;53653;52.188;8.602;2023-01-26T06:03:20;96.22;;;25.73;;
66739;SDS011;53653;52.188;8.602;2023-01-26T06:05:51;96.80;;;25.92;;
66739;SDS011;53653;52.188;8.602;2023-01-26T06:08:22;94.53;;;26.20;;
66739;SDS011;53653;52.188;8.602;2023-01-26T06:11:06;96.53;;;25.58;;
66739;SDS011;53653;52.188;8.602;2023-01-26T06:13:44;87.10;;;24.38;;
66739;SDS011;53653;52.188;8.602;2023-01-26T06:16:19;95.55;;;27.08;;
66739;SDS011;53653;52.188;8.602;2023-01-26T06:18:46;89.07;;;23.98;;
66739;SDS011;53653;52.188;8.602;2023-01-26T06:21:16;86.60;;;24.20;;
66739;SDS011;53653;52.188;8.602;2023-01-26T06:23:42;84.75;;;23.92;;
66739;SDS011;53653;52.188;8.602;2023-01-26T06:26:10;84.00;;;25.65;;
66739;SDS011;53653;52.188;8.602;2023-01-26T06:28:36;93.82;;;25.83;;
66739;SDS011;53653;52.188;8.602;2023-01-26T06:31:03;85.22;;;24.55;;
66739;SDS011;53653;52.188;8.602;2023-01-26T06:33:32;84.90;;;24.93;;
66739;SDS011;53653;52.188;8.602;2023-01-26T06:36:03;81.93;;;22.35;;
66739;SDS011;53653;52.188;8.602;2023-01-26T06:38:30;88.85;;;24.13;;
66739;SDS011;53653;52.188;8.602;2023-01-26T06:41:04;81.95;;;23.92;;
66739;SDS011;53653;52.188;8.602;2023-01-26T06:43:31;94.40;;;26.42;;
66739;SDS011;53653;52.188;8.602;2023-01-26T06:45:58;89.57;;;24.07;;
66739;SDS011;53653;52.188;8.602;2023-01-26T06:48:26;77.82;;;24.20;;
66739;SDS011;53653;52.188;8.602;2023-01-26T06:50:54;86.60;;;25.40;;
66739;SDS011;53653;52.188;8.602;2023-01-26T06:56:01;82.55;;;23.63;;
66739;SDS011;53653;52.188;8.602;2023-01-26T06:58:49;76.00;;;23.73;;
66739;SDS011;53653;52.188;8.602;2023-01-26T07:01:43;87.07;;;24.35;;
66739;SDS011;53653;52.188;8.602;2023-01-26T07:04:12;86.63;;;25.52;;
66739;SDS011;53653;52.188;8.602;2023-01-26T07:06:39;99.28;;;25.13;;
66739;SDS011;53653;52.188;8.602;2023-01-26T07:09:06;84.97;;;24.17;;
66739;SDS011;53653;52.188;8.602;2023-01-26T07:11:32;82.55;;;23.83;;
66739;SDS011;53653;52.188;8.602;2023-01-26T07:13:57;81.18;;;23.58;;
66739;SDS011;53653;52.188;8.602;2023-01-26T07:16:23;87.88;;;25.02;;
66739;SDS011;53653;52.188;8.602;2023-01-26T07:18:49;84.53;;;25.33;;
66739;SDS011;53653;52.188;8.602;2023-01-26T07:21:15;86.33;;;23.37;;
66739;SDS011;53653;52.188;8.602;2023-01-26T07:23:45;71.40;;;23.05;;
66739;SDS011;53653;52.188;8.602;2023-01-26T07:26:13;87.32;;;25.27;;
66739;SDS011;53653;52.188;8.602;2023-01-26T07:28:39;82.45;;;25.15;;
66739;SDS011;53653;52.188;8.602;2023-01-26T07:31:06;87.43;;;24.52;;
66739;SDS011;53653;52.188;8.602;2023-01-26T07:33:33;87.90;;;24.57;;
66739;SDS011;53653;52.188;8.602;2023-01-26T07:35:59;85.05;;;22.98;;
66739;SDS011;53653;52.188;8.602;2023-01-26T07:38:28;90.55;;;24.70;;
66739;SDS011;53653;52.188;8.602;2023-01-26T07:40:57;78.40;;;23.55;;
66739;SDS011;53653;52.188;8.602;2023-01-26T07:43:22;76.93;;;21.73;;
66739;SDS011;53653;52.188;8.602;2023-01-26T07:45:52;84.57;;;22.73;;
66739;SDS011;53653;52.188;8.602;2023-01-26T07:48:19;83.82;;;24.90;;
66739;SDS011;53653;52.188;8.602;2023-01-26T07:50:48;90.72;;;24.65;;
66739;SDS011;53653;52.188;8.602;2023-01-26T07:53:14;84.53;;;23.95;;
66739;SDS011;53653;52.188;8.602;2023-01-26T07:55:43;79.22;;;24.10;;
66739;SDS011;53653;52.188;8.602;2023-01-26T07:58:09;78.13;;;22.50;;
66739;SDS011;53653;52.188;8.602;2023-01-26T08:00:35;88.45;;;23.30;;
66739;SDS011;53653;52.188;8.602;2023-01-26T08:03:01;79.15;;;22.08;;
66739;SDS011;53653;52.188;8.602;2023-01-26T08:05:27;89.73;;;24.93;;
66739;SDS011;53653;52.188;8.602;2023-01-26T08:07:55;81.03;;;24.00;;
66739;SDS011;53653;52.188;8.602;2023-01-26T08:10:23;82.75;;;22.73;;
66739;SDS011;53653;52.188;8.602;2023-01-26T08:12:51;74.93;;;21.50;;
66739;SDS011;53653;52.188;8.602;2023-01-26T08:15:16;75.10;;;21.50;;
66739;SDS011;53653;52.188;8.602;2023-01-26T08:17:42;89.78;;;25.02;;
66739;SDS011;53653;52.188;8.602;2023-01-26T08:20:07;77.20;;;22.97;;
66739;SDS011;53653;52.188;8.602;2023-01-26T08:22:34;91.28;;;26.02;;
66739;SDS011;53653;52.188;8.602;2023-01-26T08:24:59;80.30;;;22.73;;
66739;SDS011;53653;52.188;8.602;2023-01-26T08:27:25;84.17;;;23.53;;
66739;SDS011;53653;52.188;8.602;2023-01-26T08:29:50;80.47;;;22.23;;
66739;SDS011;53653;52.188;8.602;2023-01-26T08:32:17;80.85;;;23.30;;
66739;SDS011;53653;52.188;8.602;2023-01-26T08:34:42;83.43;;;22.58;;
66739;SDS011;53653;52.188;8.602;2023-01-26T08:37:08;75.27;;;22.07;;
66739;SDS011;53653;52.188;8.602;2023-01-26T08:39:34;83.85;;;21.25;;
66739;SDS011;53653;52.188;8.602;2023-01-26T08:41:59;80.33;;;22.40;;
66739;SDS011;53653;52.188;8.602;2023-01-26T08:44:26;79.53;;;22.75;;
66739;SDS011;53653;52.188;8.602;2023-01-26T08:46:52;71.43;;;21.53;;
66739;SDS011;53653;52.188;8.602;2023-01-26T08:49:18;75.93;;;22.67;;
66739;SDS011;53653;52.188;8.602;2023-01-26T08:51:43;73.37;;;22.37;;
66739;SDS011;53653;52.188;8.602;2023-01-26T08:54:09;78.37;;;22.17;;
66739;SDS011;53653;52.188;8.602;2023-01-26T08:56:35;78.38;;;19.90;;
66739;SDS011;53653;52.188;8.602;2023-01-26T08:59:01;78.07;;;22.38;;
66739;SDS011;53653;52.188;8.602;2023-01-26T09:01:27;75.80;;;22.50;;
66739;SDS011;53653;52.188;8.602;2023-01-26T09:03:52;75.17;;;22.37;;
66739;SDS011;53653;52.188;8.602;2023-01-26T09:06:19;79.28;;;22.92;;
66739;SDS011;53653;52.188;8.602;2023-01-26T09:08:46;76.60;;;22.67;;
66739;SDS011;53653;52.188;8.602;2023-01-26T09:11:11;79.87;;;22.73;;
66739;SDS011;53653;52.188;8.602;2023-01-26T09:13:37;85.68;;;25.27;;
66739;SDS011;53653;52.188;8.602;2023-01-26T09:16:09;85.65;;;26.60;;
66739;SDS011;53653;52.188;8.602;2023-01-26T09:18:40;81.95;;;23.95;;
66739;SDS011;53653;52.188;8.602;2023-01-26T09:21:06;75.90;;;21.80;;
66739;SDS011;53653;52.188;8.602;2023-01-26T09:23:33;81.55;;;23.77;;
66739;SDS011;53653;52.188;8.602;2023-01-26T09:25:59;81.32;;;23.08;;
66739;SDS011;53653;52.188;8.602;2023-01-26T09:28:26;82.38;;;23.00;;
66739;SDS011;53653;52.188;8.602;2023-01-26T09:30:52;82.80;;;22.33;;
66739;SDS011;53653;52.188;8.602;2023-01-26T09:33:17;84.57;;;22.77;;
66739;SDS011;53653;52.188;8.602;2023-01-26T09:35:45;70.35;;;20.80;;
66739;SDS011;53653;52.188;8.602;2023-01-26T09:38:11;76.13;;;20.97;;
66739;SDS011;53653;52.188;8.602;2023-01-26T09:45:54;74.28;;;21.10;;
66739;SDS011;53653;52.188;8.602;2023-01-26T09:51:19;69.13;;;19.20;;
66739;SDS011;53653;52.188;8.602;2023-01-26T09:56:58;62.83;;;18.60;;
66739;SDS011;53653;52.188;8.602;2023-01-26T09:59:59;70.85;;;20.08;;
66739;SDS011;53653;52.188;8.602;2023-01-26T10:02:22;70.27;;;19.80;;
66739;SDS011;53653;52.188;8.602;2023-01-26T10:05:13;63.22;;;20.13;;
66739;SDS011;53653;52.188;8.602;2023-01-26T10:07:44;69.15;;;21.10;;
66739;SDS011;53653;52.188;8.602;2023-01-26T10:10:14;68.97;;;20.38;;
66739;SDS011;53653;52.188;8.602;2023-01-26T10:12:47;73.13;;;21.90;;
66739;SDS011;53653;52.188;8.602;2023-01-26T10:17:45;64.45;;;21.00;;
66739;SDS011;53653;52.188;8.602;2023-01-26T10:23:06;65.32;;;18.92;;
66739;SDS011;53653;52.188;8.602;2023-01-26T10:25:42;62.60;;;19.20;;
66739;SDS011;53653;52.188;8.602;2023-01-26T10:28:26;70.90;;;19.77;;
66739;SDS011;53653;52.188;8.602;2023-01-26T10:30:53;58.08;;;18.65;;
66739;SDS011;53653;52.188;8.602;2023-01-26T10:33:29;56.45;;;17.17;;
66739;SDS011;53653;52.188;8.602;2023-01-26T10:35:57;64.15;;;17.75;;
66739;SDS011;53653;52.188;8.602;2023-01-26T10:41:02;55.40;;;17.38;;
66739;SDS011;53653;52.188;8.602;2023-01-26T10:44:39;60.58;;;17.38;;
66739;SDS011;53653;52.188;8.602;2023-01-26T10:46:42;58.05;;;16.23;;
66739;SDS011;53653;52.188;8.602;2023-01-26T10:51:33;50.93;;;16.53;;
66739;SDS011;53653;52.188;8.602;2023-01-26T10:57:01;48.35;;;14.90;;
66739;SDS011;53653;52.188;8.602;2023-01-26T11:02:23;52.88;;;15.95;;
66739;SDS011;53653;52.188;8.602;2023-01-26T11:07:37;52.30;;;15.65;;
66739;SDS011;53653;52.188;8.602;2023-01-26T11:12:46;49.65;;;14.23;;
66739;SDS011;53653;52.188;8.602;2023-01-26T11:20:52;54.03;;;15.45;;
66739;SDS011;53653;52.188;8.602;2023-01-26T11:32:05;46.60;;;13.90;;
66739;SDS011;53653;52.188;8.602;2023-01-26T11:45:36;51.13;;;16.63;;
66739;SDS011;53653;52.188;8.602;2023-01-26T11:48:27;50.10;;;15.10;;
66739;SDS011;53653;52.188;8.602;2023-01-26T11:58:57;54.80;;;17.00;;
66739;SDS011;53653;52.188;8.602;2023-01-26T12:01:37;61.15;;;18.67;;
66739;SDS011;53653;52.188;8.602;2023-01-26T12:04:15;61.92;;;19.67;;
66739;SDS011;53653;52.188;8.602;2023-01-26T12:06:45;60.40;;;17.63;;
66739;SDS011;53653;52.188;8.602;2023-01-26T12:09:38;52.58;;;16.17;;
66739;SDS011;53653;52.188;8.602;2023-01-26T12:15:12;49.80;;;15.40;;
66739;SDS011;53653;52.188;8.602;2023-01-26T12:26:17;43.67;;;13.70;;
66739;SDS011;53653;52.188;8.602;2023-01-26T12:34:18;47.45;;;14.52;;
66739;SDS011;53653;52.188;8.602;2023-01-26T12:39:49;43.50;;;13.33;;
66739;SDS011;53653;52.188;8.602;2023-01-26T12:42:27;42.33;;;13.65;;
66739;SDS011;53653;52.188;8.602;2023-01-26T12:45:05;46.10;;;13.52;;
66739;SDS011;53653;52.188;8.602;2023-01-26T12:47:43;39.20;;;12.52;;
66739;SDS011;53653;52.188;8.602;2023-01-26T12:50:18;38.35;;;12.43;;
66739;SDS011;53653;52.188;8.602;2023-01-26T12:53:06;39.53;;;12.40;;
66739;SDS011;53653;52.188;8.602;2023-01-26T12:58:19;35.63;;;11.23;;
66739;SDS011;53653;52.188;8.602;2023-01-26T13:03:32;54.00;;;18.98;;
66739;SDS011;53653;52.188;8.602;2023-01-26T13:08:39;39.33;;;15.50;;
66739;SDS011;53653;52.188;8.602;2023-01-26T13:16:54;67.50;;;28.38;;
66739;SDS011;53653;52.188;8.602;2023-01-26T13:19:50;35.07;;;12.47;;
66739;SDS011;53653;52.188;8.602;2023-01-26T13:28:00;38.72;;;15.77;;
66739;SDS011;53653;52.188;8.602;2023-01-26T13:33:19;30.87;;;11.63;;
66739;SDS011;53653;52.188;8.602;2023-01-26T13:35:47;37.30;;;12.93;;
66739;SDS011;53653;52.188;8.602;2023-01-26T13:38:33;222.27;;;51.65;;
66739;SDS011;53653;52.188;8.602;2023-01-26T13:41:06;68.70;;;23.88;;
66739;SDS011;53653;52.188;8.602;2023-01-26T13:43:39;42.53;;;19.63;;
66739;SDS011;53653;52.188;8.602;2023-01-26T13:46:09;30.33;;;12.50;;
66739;SDS011;53653;52.188;8.602;2023-01-26T13:48:51;24.27;;;9.60;;
66739;SDS011;53653;52.188;8.602;2023-01-26T13:53:57;34.38;;;13.55;;
66739;SDS011;53653;52.188;8.602;2023-01-26T13:59:02;27.63;;;9.77;;
66739;SDS011;53653;52.188;8.602;2023-01-26T14:01:39;33.97;;;13.85;;
66739;SDS011;53653;52.188;8.602;2023-01-26T14:04:15;30.17;;;11.25;;
66739;SDS011;53653;52.188;8.602;2023-01-26T14:06:46;28.27;;;11.02;;
66739;SDS011;53653;52.188;8.602;2023-01-26T14:09:47;26.42;;;9.60;;
66739;SDS011;53653;52.188;8.602;2023-01-26T14:12:22;25.20;;;10.20;;
66739;SDS011;53653;52.188;8.602;2023-01-26T14:14:52;24.08;;;8.95;;
66739;SDS011;53653;52.188;8.602;2023-01-26T14:19:53;25.90;;;9.52;;
66739;SDS011;53653;52.188;8.602;2023-01-26T14:22:19;29.00;;;10.63;;
66739;SDS011;53653;52.188;8.602;2023-01-26T14:24:48;26.30;;;9.50;;
66739;SDS011;53653;52.188;8.602;2023-01-26T14:30:02;26.45;;;10.07;;
66739;SDS011;53653;52.188;8.602;2023-01-26T14:32:44;29.40;;;9.83;;
66739;SDS011;53653;52.188;8.602;2023-01-26T14:35:17;31.63;;;10.38;;
66739;SDS011;53653;52.188;8.602;2023-01-26T14:37:47;24.67;;;9.80;;
66739;SDS011;53653;52.188;8.602;2023-01-26T14:42:48;30.92;;;9.57;;
66739;SDS011;53653;52.188;8.602;2023-01-26T14:45:16;28.33;;;11.07;;
66739;SDS011;53653;52.188;8.602;2023-01-26T14:47:45;31.10;;;10.48;;
66739;SDS011;53653;52.188;8.602;2023-01-26T14:50:21;27.27;;;10.30;;
66739;SDS011;53653;52.188;8.602;2023-01-26T14:52:56;37.63;;;15.20;;
66739;SDS011;53653;52.188;8.602;2023-01-26T14:55:33;36.78;;;12.27;;
66739;SDS011;53653;52.188;8.602;2023-01-26T14:58:01;35.20;;;12.23;;
66739;SDS011;53653;52.188;8.602;2023-01-26T15:00:34;37.92;;;12.90;;
66739;SDS011;53653;52.188;8.602;2023-01-26T15:03:04;43.53;;;16.13;;
66739;SDS011;53653;52.188;8.602;2023-01-26T15:05:37;36.40;;;12.68;;
66739;SDS011;53653;52.188;8.602;2023-01-26T15:08:21;37.17;;;10.48;;
66739;SDS011;53653;52.188;8.602;2023-01-26T15:10:53;32.67;;;11.80;;
66739;SDS011;53653;52.188;8.602;2023-01-26T15:13:50;42.35;;;13.20;;
66739;SDS011;53653;52.188;8.602;2023-01-26T15:16:18;43.92;;;13.05;;
66739;SDS011;53653;52.188;8.602;2023-01-26T15:18:58;47.03;;;15.02;;
66739;SDS011;53653;52.188;8.602;2023-01-26T15:21:30;44.35;;;13.43;;
66739;SDS011;53653;52.188;8.602;2023-01-26T15:23:58;47.83;;;14.67;;
66739;SDS011;53653;52.188;8.602;2023-01-26T15:26:31;46.63;;;15.68;;
66739;SDS011;53653;52.188;8.602;2023-01-26T15:28:59;59.58;;;25.05;;
66739;SDS011;53653;52.188;8.602;2023-01-26T15:31:33;51.45;;;23.85;;
66739;SDS011;53653;52.188;8.602;2023-01-26T15:37:01;51.05;;;19.02;;
66739;SDS011;53653;52.188;8.602;2023-01-26T15:39:47;46.28;;;16.52;;
66739;SDS011;53653;52.188;8.602;2023-01-26T15:42:14;51.03;;;20.87;;
66739;SDS011;53653;52.188;8.602;2023-01-26T15:44:45;62.55;;;28.42;;
66739;SDS011;53653;52.188;8.602;2023-01-26T15:47:14;74.97;;;24.50;;
66739;SDS011;53653;52.188;8.602;2023-01-26T15:49:40;62.15;;;20.42;;
66739;SDS011;53653;52.188;8.602;2023-01-26T15:54:40;36.63;;;12.87;;
66739;SDS011;53653;52.188;8.602;2023-01-26T15:57:05;36.58;;;12.70;;
66739;SDS011;53653;52.188;8.602;2023-01-26T15:59:33;55.65;;;14.63;;
66739;SDS011;53653;52.188;8.602;2023-01-26T16:01:58;50.00;;;13.03;;
66739;SDS011;53653;52.188;8.602;2023-01-26T16:04:25;44.08;;;13.90;;
66739;SDS011;53653;52.188;8.602;2023-01-26T16:06:53;73.47;;;20.77;;
66739;SDS011;53653;52.188;8.602;2023-01-26T16:09:18;67.15;;;20.30;;
66739;SDS011;53653;52.188;8.602;2023-01-26T16:11:47;75.77;;;20.67;;
66739;SDS011;53653;52.188;8.602;2023-01-26T16:14:18;74.00;;;20.15;;
66739;SDS011;53653;52.188;8.602;2023-01-26T16:16:44;70.15;;;22.38;;
66739;SDS011;53653;52.188;8.602;2023-01-26T16:19:10;72.57;;;24.93;;
66739;SDS011;53653;52.188;8.602;2023-01-26T16:21:38;61.70;;;19.67;;
66739;SDS011;53653;52.188;8.602;2023-01-26T16:24:05;60.25;;;20.75;;
66739;SDS011;53653;52.188;8.602;2023-01-26T16:26:31;58.55;;;21.45;;
66739;SDS011;53653;52.188;8.602;2023-01-26T16:28:58;63.30;;;20.97;;
66739;SDS011;53653;52.188;8.602;2023-01-26T16:31:26;69.68;;;22.38;;
66739;SDS011;53653;52.188;8.602;2023-01-26T16:33:55;65.07;;;25.27;;
66739;SDS011;53653;52.188;8.602;2023-01-26T16:36:24;69.32;;;24.27;;
66739;SDS011;53653;52.188;8.602;2023-01-26T16:38:49;76.00;;;22.13;;
66739;SDS011;53653;52.188;8.602;2023-01-26T16:41:28;64.17;;;20.67;;
66739;SDS011;53653;52.188;8.602;2023-01-26T16:43:57;49.40;;;17.17;;
66739;SDS011;53653;52.188;8.602;2023-01-26T16:46:28;64.78;;;16.35;;
66739;SDS011;53653;52.188;8.602;2023-01-26T16:48:54;56.50;;;17.30;;
66739;SDS011;53653;52.188;8.602;2023-01-26T16:51:34;54.72;;;16.33;;
66739;SDS011;53653;52.188;8.602;2023-01-26T16:54:06;45.38;;;16.33;;
66739;SDS011;53653;52.188;8.602;2023-01-26T16:56:33;41.97;;;15.05;;
66739;SDS011;53653;52.188;8.602;2023-01-26T16:59:03;57.88;;;18.42;;
66739;SDS011;53653;52.188;8.602;2023-01-26T17:01:33;56.93;;;16.20;;